createdAt,value
2022-08-11T00:02:35.940Z,15.90
2022-08-11T00:05:10.534Z,15.90
2022-08-11T00:07:44.958Z,15.90
2022-08-11T00:10:15.752Z,16.00
2022-08-11T00:12:52.282Z,15.90
2022-08-11T00:15:21.156Z,16.00
2022-08-11T00:17:50.013Z,16.00
2022-08-11T00:20:20.178Z,16.00
2022-08-11T00:22:50.080Z,16.00
2022-08-11T00:25:20.166Z,15.90
2022-08-11T00:27:50.294Z,16.00
2022-08-11T00:30:18.858Z,16.00
2022-08-11T00:32:55.043Z,16.00
2022-08-11T00:35:51.864Z,15.90
2022-08-11T00:38:17.824Z,15.80
2022-08-11T00:40:54.377Z,15.70
2022-08-11T00:43:40.863Z,15.70
2022-08-11T00:46:23.664Z,15.70
2022-08-11T00:49:07.314Z,15.70
2022-08-11T00:52:04.788Z,15.60
2022-08-11T00:55:12.396Z,15.60
2022-08-11T00:58:31.824Z,15.70
2022-08-11T01:01:12.022Z,15.60
2022-08-11T01:04:09.667Z,15.60
2022-08-11T01:07:17.457Z,15.40
2022-08-11T01:10:40.314Z,15.50
2022-08-11T01:13:20.101Z,15.40
2022-08-11T01:16:09.173Z,15.40
2022-08-11T01:19:15.941Z,15.30
2022-08-11T01:22:19.808Z,15.30
2022-08-11T01:25:57.410Z,15.20
2022-08-11T01:29:02.297Z,15.20
2022-08-11T01:31:57.169Z,15.20
2022-08-11T01:35:03.128Z,15.20
2022-08-11T01:38:10.189Z,15.10
2022-08-11T01:41:07.525Z,15.10
2022-08-11T01:44:22.047Z,15.10
2022-08-11T01:46:58.089Z,15.10
2022-08-11T01:50:08.717Z,15.00
2022-08-11T01:52:34.718Z,15.10
2022-08-11T01:55:15.812Z,15.00
2022-08-11T01:57:48.497Z,15.00
2022-08-11T02:00:21.869Z,14.90
2022-08-11T02:02:55.028Z,14.80
2022-08-11T02:05:37.795Z,14.80
2022-08-11T02:08:18.300Z,14.80
2022-08-11T02:11:16.087Z,14.80
2022-08-11T02:13:52.203Z,14.80
2022-08-11T02:16:37.927Z,14.80
2022-08-11T02:19:37.271Z,14.70
2022-08-11T02:22:27.987Z,14.70
2022-08-11T02:25:03.010Z,14.70
2022-08-11T02:27:41.473Z,14.70
2022-08-11T02:30:12.798Z,14.60
2022-08-11T02:33:13.850Z,14.60
2022-08-11T02:35:49.324Z,14.60
2022-08-11T02:38:25.043Z,14.40
2022-08-11T02:41:03.926Z,14.40
2022-08-11T02:43:47.298Z,14.30
2022-08-11T02:46:28.646Z,14.30
2022-08-11T02:49:38.787Z,14.30
2022-08-11T02:52:10.666Z,14.30
2022-08-11T02:54:46.211Z,14.20
2022-08-11T02:57:22.163Z,14.20
2022-08-11T02:59:56.331Z,14.20
2022-08-11T03:02:44.237Z,14.20
2022-08-11T03:05:28.328Z,14.20
2022-08-11T03:08:19.753Z,14.20
2022-08-11T03:11:15.408Z,14.30
2022-08-11T03:14:06.002Z,14.20
2022-08-11T03:16:48.432Z,14.20
2022-08-11T03:19:38.004Z,14.20
2022-08-11T03:22:14.440Z,14.10
2022-08-11T03:24:54.784Z,14.10
2022-08-11T03:27:36.913Z,14.10
2022-08-11T03:30:12.833Z,14.10
2022-08-11T03:33:09.282Z,14.10
2022-08-11T03:35:42.940Z,14.20
2022-08-11T03:38:16.009Z,14.10
2022-08-11T03:42:01.347Z,14.20
2022-08-11T03:44:30.760Z,14.20
2022-08-11T03:47:12.799Z,14.10
2022-08-11T03:49:55.960Z,14.10
2022-08-11T03:52:35.663Z,14.10
2022-08-11T03:55:15.097Z,14.20
2022-08-11T03:58:25.769Z,14.10
2022-08-11T04:01:26.620Z,14.10
2022-08-11T04:04:19.906Z,14.20
2022-08-11T04:07:43.872Z,14.30
2022-08-11T04:10:54.469Z,14.30
2022-08-11T04:14:19.012Z,14.30
2022-08-11T04:16:59.328Z,14.50
2022-08-11T04:20:03.430Z,14.50
2022-08-11T04:23:03.670Z,14.50
2022-08-11T04:25:58.945Z,14.60
2022-08-11T04:28:56.566Z,14.60
2022-08-11T04:31:44.291Z,14.70
2022-08-11T04:34:50.509Z,14.70
2022-08-11T04:37:42.754Z,14.80
2022-08-11T04:40:58.498Z,14.90
2022-08-11T04:44:05.730Z,15.00
2022-08-11T04:47:07.153Z,15.10
2022-08-11T04:50:21.249Z,15.20
2022-08-11T04:53:39.109Z,15.20
2022-08-11T04:56:29.000Z,15.30
2022-08-11T04:59:54.193Z,15.40
2022-08-11T05:02:52.776Z,15.50
2022-08-11T05:05:32.179Z,15.60
2022-08-11T05:08:57.723Z,15.80
2022-08-11T05:12:10.552Z,15.70
2022-08-11T05:15:18.818Z,15.90
2022-08-11T05:18:16.034Z,15.90
2022-08-11T05:21:07.548Z,16.00
2022-08-11T05:23:58.544Z,16.20
2022-08-11T05:26:49.332Z,16.40
2022-08-11T05:29:58.414Z,16.60
2022-08-11T05:32:50.190Z,16.70
2022-08-11T05:36:01.631Z,16.70
2022-08-11T05:38:38.558Z,16.80
2022-08-11T05:41:26.126Z,16.80
2022-08-11T05:44:21.740Z,16.80
2022-08-11T05:47:10.001Z,16.90
2022-08-11T05:49:57.855Z,17.00
2022-08-11T05:52:46.889Z,17.00
2022-08-11T05:55:35.231Z,17.30
2022-08-11T05:58:09.037Z,17.30
2022-08-11T06:00:43.913Z,17.30
2022-08-11T06:03:21.866Z,17.40
2022-08-11T06:05:51.768Z,17.50
2022-08-11T06:08:32.403Z,17.60
2022-08-11T06:11:06.500Z,17.70
2022-08-11T06:13:35.756Z,17.90
2022-08-11T06:16:07.005Z,17.90
2022-08-11T06:18:39.026Z,18.00
2022-08-11T06:21:12.347Z,18.00
2022-08-11T06:23:42.398Z,18.10
2022-08-11T06:26:11.523Z,18.40
2022-08-11T06:28:41.536Z,18.40
2022-08-11T06:31:14.595Z,18.50
2022-08-11T06:33:56.789Z,18.60
2022-08-11T06:36:34.439Z,18.60
2022-08-11T06:39:14.406Z,18.70
2022-08-11T06:41:49.639Z,18.80
2022-08-11T06:44:25.261Z,18.80
2022-08-11T06:46:56.119Z,18.80
2022-08-11T06:49:53.182Z,18.90
2022-08-11T06:52:34.731Z,19.10
2022-08-11T06:55:54.840Z,19.20
2022-08-11T06:58:16.051Z,19.20
2022-08-11T07:00:45.153Z,19.40
2022-08-11T07:03:17.698Z,19.60
2022-08-11T07:05:53.064Z,19.70
2022-08-11T07:09:04.047Z,19.90
2022-08-11T07:12:12.891Z,20.00
2022-08-11T07:15:05.945Z,20.10
2022-08-11T07:17:39.174Z,20.10
2022-08-11T07:20:26.549Z,20.10
2022-08-11T07:23:15.034Z,20.20
2022-08-11T07:26:03.987Z,20.40
2022-08-11T07:28:52.434Z,20.50
2022-08-11T07:31:26.583Z,20.60
2022-08-11T07:34:07.300Z,20.80
2022-08-11T07:36:41.577Z,20.90
2022-08-11T07:39:17.724Z,21.00
2022-08-11T07:41:47.414Z,21.10
2022-08-11T07:44:17.273Z,21.30
2022-08-11T07:47:06.291Z,21.20
2022-08-11T07:49:54.582Z,21.30
2022-08-11T07:52:34.010Z,21.40
2022-08-11T07:55:07.774Z,21.50
2022-08-11T07:58:15.932Z,21.50
2022-08-11T08:01:09.896Z,21.70
2022-08-11T08:03:56.912Z,21.90
2022-08-11T08:06:43.970Z,21.90
2022-08-11T08:09:30.916Z,21.90
2022-08-11T08:12:20.721Z,22.00
2022-08-11T08:15:06.508Z,22.00
2022-08-11T08:18:09.696Z,22.00
2022-08-11T08:20:45.553Z,22.00
2022-08-11T08:23:14.322Z,22.20
2022-08-11T08:25:45.582Z,22.20
2022-08-11T08:28:18.519Z,22.10
2022-08-11T08:30:49.898Z,22.20
2022-08-11T08:33:22.187Z,22.20
2022-08-11T08:36:11.644Z,22.10
2022-08-11T08:38:41.928Z,22.10
2022-08-11T08:41:12.934Z,22.40
2022-08-11T08:43:50.122Z,22.50
2022-08-11T08:46:23.185Z,22.50
2022-08-11T08:48:53.515Z,22.50
2022-08-11T08:51:58.851Z,22.50
2022-08-11T08:54:29.623Z,22.60
2022-08-11T08:56:59.097Z,22.60
2022-08-11T08:59:47.698Z,22.60
2022-08-11T09:02:22.082Z,22.40
2022-08-11T09:05:04.388Z,22.30
2022-08-11T09:07:39.708Z,22.40
2022-08-11T09:10:10.474Z,22.60
2022-08-11T09:12:41.766Z,22.70
2022-08-11T09:15:14.101Z,22.70
2022-08-11T09:17:46.002Z,22.60
2022-08-11T09:20:18.579Z,22.80
2022-08-11T09:26:14.716Z,23.80
2022-08-11T09:28:44.222Z,23.60
2022-08-11T09:31:15.261Z,23.30
2022-08-11T09:33:45.252Z,23.20
2022-08-11T09:36:32.599Z,23.30
2022-08-11T09:39:21.818Z,23.50
2022-08-11T09:42:00.757Z,23.50
2022-08-11T09:44:50.156Z,23.50
2022-08-11T09:47:25.080Z,23.50
2022-08-11T09:50:00.203Z,23.70
2022-08-11T09:52:31.826Z,23.80
2022-08-11T09:55:00.903Z,24.10
2022-08-11T09:57:46.557Z,24.10
2022-08-11T10:00:16.349Z,23.90
2022-08-11T10:02:49.371Z,24.10
2022-08-11T10:05:37.672Z,24.10
2022-08-11T10:08:07.094Z,24.20
2022-08-11T10:10:38.632Z,24.10
2022-08-11T10:14:30.421Z,24.20
2022-08-11T10:16:15.160Z,24.50
2022-08-11T10:18:52.804Z,24.50
2022-08-11T10:21:29.187Z,24.40
2022-08-11T10:24:18.117Z,24.10
2022-08-11T10:26:54.645Z,24.00
2022-08-11T10:29:44.501Z,24.30
2022-08-11T10:32:49.435Z,24.50
2022-08-11T10:35:29.135Z,25.20
2022-08-11T10:38:07.599Z,25.50
2022-08-11T10:40:40.526Z,24.90
2022-08-11T10:43:14.317Z,24.30
2022-08-11T10:46:05.080Z,24.10
2022-08-11T10:48:38.196Z,24.00
2022-08-11T10:51:13.749Z,23.70
2022-08-11T10:54:02.042Z,23.60
2022-08-11T10:56:49.408Z,23.90
2022-08-11T10:59:18.240Z,23.70
2022-08-11T11:01:47.500Z,23.50
2022-08-11T11:04:17.835Z,23.20
2022-08-11T11:06:57.533Z,23.40
2022-08-11T11:09:32.453Z,24.00
2022-08-11T11:12:22.060Z,24.30
2022-08-11T11:15:17.397Z,24.60
2022-08-11T11:18:01.703Z,24.50
2022-08-11T11:20:38.715Z,24.20
2022-08-11T11:23:17.842Z,24.10
2022-08-11T11:26:10.719Z,24.30
2022-08-11T11:29:11.688Z,24.20
2022-08-11T11:31:52.944Z,24.40
2022-08-11T11:34:58.434Z,24.80
2022-08-11T11:37:27.579Z,25.60
2022-08-11T11:39:58.581Z,26.00
2022-08-11T11:42:27.552Z,26.80
2022-08-11T11:44:56.774Z,27.40
2022-08-11T11:47:27.791Z,26.20
2022-08-11T11:49:56.728Z,25.40
2022-08-11T11:52:25.623Z,24.70
2022-08-11T11:54:59.828Z,24.30
2022-08-11T11:57:59.273Z,24.00
2022-08-11T12:00:47.832Z,23.70
2022-08-11T12:03:17.977Z,23.90
2022-08-11T12:05:46.738Z,24.60
2022-08-11T12:08:16.396Z,25.30
2022-08-11T12:10:48.300Z,26.40
2022-08-11T12:13:50.697Z,26.90
2022-08-11T12:16:34.668Z,26.30
2022-08-11T12:19:06.501Z,26.10
2022-08-11T12:21:36.996Z,26.10
2022-08-11T12:24:29.482Z,26.20
2022-08-11T12:27:18.259Z,26.00
2022-08-11T12:29:54.498Z,25.50
2022-08-11T12:32:26.738Z,25.40
2022-08-11T12:34:58.031Z,25.50
2022-08-11T12:37:31.385Z,25.40
2022-08-11T12:40:42.822Z,25.20
2022-08-11T12:43:37.303Z,25.00
2022-08-11T12:46:09.781Z,24.90
2022-08-11T12:49:02.463Z,25.30
2022-08-11T12:52:11.359Z,26.00
2022-08-11T12:54:51.917Z,26.70
2022-08-11T12:57:44.384Z,26.50
2022-08-11T13:00:33.264Z,26.60
2022-08-11T13:03:19.966Z,23.50
2022-08-11T13:05:49.658Z,23.10
2022-08-11T13:08:19.092Z,23.50
2022-08-11T13:11:05.900Z,24.00
2022-08-11T13:13:52.606Z,24.50
2022-08-11T13:16:25.731Z,24.80
2022-08-11T13:18:54.324Z,24.90
2022-08-11T13:21:24.156Z,24.80
2022-08-11T13:23:59.547Z,25.10
2022-08-11T13:26:46.784Z,25.40
2022-08-11T13:29:21.101Z,25.40
2022-08-11T13:31:51.487Z,25.60
2022-08-11T13:34:21.132Z,25.70
2022-08-11T13:36:52.901Z,26.20
2022-08-11T13:39:24.048Z,26.60
2022-08-11T13:41:55.277Z,27.10
2022-08-11T13:44:27.204Z,26.90
2022-08-11T13:46:59.149Z,27.10
2022-08-11T13:49:28.749Z,26.60
2022-08-11T13:51:58.266Z,26.10
2022-08-11T13:54:28.606Z,25.90
2022-08-11T13:56:58.660Z,25.90
2022-08-11T13:59:30.895Z,26.10
2022-08-11T14:02:28.345Z,26.60
2022-08-11T14:04:56.228Z,27.00
2022-08-11T14:07:27.122Z,27.70
2022-08-11T14:09:59.373Z,28.20
2022-08-11T14:12:48.090Z,28.20
2022-08-11T14:15:20.801Z,28.40
2022-08-11T14:17:56.532Z,28.40
2022-08-11T14:20:45.860Z,27.50
2022-08-11T14:23:15.009Z,26.90
2022-08-11T14:26:03.795Z,26.10
2022-08-11T14:28:44.010Z,25.60
2022-08-11T14:31:15.499Z,25.50
2022-08-11T14:34:00.913Z,25.40
2022-08-11T14:36:32.931Z,25.70
2022-08-11T14:39:04.402Z,25.80
2022-08-11T14:42:11.436Z,25.60
2022-08-11T14:44:59.198Z,25.50
2022-08-11T14:47:29.502Z,25.00
2022-08-11T14:50:10.961Z,24.50
2022-08-11T14:52:46.996Z,24.20
2022-08-11T14:55:33.867Z,23.90
2022-08-11T14:58:03.415Z,23.80
2022-08-11T15:00:33.276Z,23.90
2022-08-11T15:03:11.308Z,23.70
2022-08-11T15:05:52.432Z,23.80
2022-08-11T15:08:42.368Z,23.80
2022-08-11T15:11:32.315Z,23.60
2022-08-11T15:14:02.247Z,23.60
2022-08-11T15:16:45.276Z,23.70
2022-08-11T15:19:14.465Z,23.90
2022-08-11T15:22:01.315Z,23.90
2022-08-11T15:24:30.847Z,23.80
2022-08-11T15:27:19.312Z,23.60
2022-08-11T15:30:06.607Z,23.50
2022-08-11T15:32:53.219Z,23.40
2022-08-11T15:35:39.803Z,23.40
2022-08-11T15:38:13.656Z,23.40
2022-08-11T15:41:01.857Z,23.30
2022-08-11T15:43:55.015Z,23.40
2022-08-11T15:46:32.363Z,23.50
2022-08-11T15:49:03.690Z,23.60
2022-08-11T15:51:37.021Z,23.70
2022-08-11T15:54:11.381Z,23.50
2022-08-11T15:56:43.110Z,23.50
2022-08-11T15:59:41.578Z,23.60
2022-08-11T16:02:32.737Z,23.50
2022-08-11T16:05:04.194Z,23.50
2022-08-11T16:07:36.393Z,23.50
2022-08-11T16:10:18.670Z,23.50
2022-08-11T16:13:21.459Z,23.60
2022-08-11T16:16:10.186Z,23.80
2022-08-11T16:18:43.220Z,23.90
2022-08-11T16:21:26.143Z,23.80
2022-08-11T16:24:08.842Z,23.80
2022-08-11T16:27:08.860Z,23.70
2022-08-11T16:29:45.206Z,23.50
2022-08-11T16:32:20.754Z,23.60
2022-08-11T16:35:11.984Z,23.60
2022-08-11T16:37:59.104Z,23.60
2022-08-11T16:40:29.081Z,23.50
2022-08-11T16:43:17.297Z,23.30
2022-08-11T16:46:04.693Z,23.30
2022-08-11T16:48:38.231Z,23.20
2022-08-11T16:51:08.212Z,23.10
2022-08-11T16:53:45.853Z,23.00
2022-08-11T16:56:30.637Z,22.90
2022-08-11T16:59:16.003Z,22.80
2022-08-11T17:01:49.023Z,22.80
2022-08-11T17:04:43.488Z,22.70
2022-08-11T17:07:50.358Z,22.70
2022-08-11T17:10:51.156Z,22.60
2022-08-11T17:13:27.151Z,22.40
2022-08-11T17:16:12.230Z,22.30
2022-08-11T17:18:51.261Z,22.20
2022-08-11T17:21:22.577Z,22.10
2022-08-11T17:23:55.442Z,22.00
2022-08-11T17:26:47.439Z,21.80
2022-08-11T17:29:16.383Z,21.80
2022-08-11T17:32:05.020Z,21.70
2022-08-11T17:34:51.593Z,21.70
2022-08-11T17:37:21.078Z,21.90
2022-08-11T17:39:50.534Z,21.80
2022-08-11T17:42:42.299Z,21.60
2022-08-11T17:45:29.972Z,21.40
2022-08-11T17:48:19.850Z,21.30
2022-08-11T17:50:49.214Z,21.30
2022-08-11T17:53:35.875Z,21.40
2022-08-11T17:56:22.663Z,21.50
2022-08-11T17:59:11.215Z,21.50
2022-08-11T18:01:41.098Z,21.50
2022-08-11T18:04:12.490Z,21.50
2022-08-11T18:06:42.162Z,21.60
2022-08-11T18:09:31.956Z,21.60
2022-08-11T18:12:19.569Z,21.60
2022-08-11T18:15:07.684Z,21.60
2022-08-11T18:17:54.607Z,21.50
2022-08-11T18:20:42.773Z,21.40
2022-08-11T18:23:40.575Z,21.30
2022-08-11T18:26:36.505Z,21.40
2022-08-11T18:29:25.203Z,21.30
2022-08-11T18:32:20.737Z,20.80
2022-08-11T18:35:10.784Z,20.60
2022-08-11T18:38:04.410Z,20.50
2022-08-11T18:40:51.968Z,20.70
2022-08-11T18:43:44.564Z,20.60
2022-08-11T18:46:35.175Z,20.60
2022-08-11T18:49:35.487Z,20.80
2022-08-11T18:52:34.878Z,20.90
2022-08-11T18:55:24.461Z,20.70
2022-08-11T18:58:12.676Z,20.70
2022-08-11T19:01:00.254Z,20.60
2022-08-11T19:03:49.261Z,20.40
2022-08-11T19:06:41.045Z,20.60
2022-08-11T19:09:31.493Z,20.50
2022-08-11T19:12:20.419Z,20.30
2022-08-11T19:15:08.665Z,20.30
2022-08-11T19:17:57.365Z,20.40
2022-08-11T19:20:46.023Z,20.50
2022-08-11T19:23:36.176Z,20.60
2022-08-11T19:26:25.040Z,20.50
2022-08-11T19:30:07.385Z,20.50
2022-08-11T19:32:20.652Z,20.50
2022-08-11T19:35:07.461Z,20.50
2022-08-11T19:37:54.540Z,20.30
2022-08-11T19:40:41.788Z,20.20
2022-08-11T19:43:29.294Z,20.20
2022-08-11T19:46:19.084Z,20.10
2022-08-11T19:49:09.963Z,20.00
2022-08-11T19:51:57.151Z,20.00
2022-08-11T19:54:45.880Z,20.10
2022-08-11T19:57:37.124Z,19.90
2022-08-11T20:00:29.909Z,19.90
2022-08-11T20:03:18.383Z,20.00
2022-08-11T20:06:06.187Z,20.10
2022-08-11T20:08:56.404Z,20.10
2022-08-11T20:11:44.962Z,20.00
2022-08-11T20:14:32.169Z,19.90
2022-08-11T20:17:19.386Z,19.70
2022-08-11T20:20:07.097Z,19.70
2022-08-11T20:22:52.960Z,19.90
2022-08-11T20:25:41.550Z,19.80
2022-08-11T20:28:30.073Z,19.80
2022-08-11T20:31:16.151Z,19.90
2022-08-11T20:34:02.763Z,20.00
2022-08-11T20:36:54.087Z,20.00
2022-08-11T20:39:43.366Z,20.20
2022-08-11T20:42:31.182Z,20.30
2022-08-11T20:45:24.022Z,20.30
2022-08-11T20:48:14.806Z,20.30
2022-08-11T20:51:06.406Z,20.30
2022-08-11T20:53:56.699Z,19.90
2022-08-11T20:56:44.439Z,19.80
2022-08-11T20:59:33.345Z,19.80
2022-08-11T21:02:36.202Z,20.00
2022-08-11T21:06:10.545Z,20.00
2022-08-11T21:08:30.119Z,20.10
2022-08-11T21:11:27.474Z,20.20
2022-08-11T21:14:15.489Z,20.30
2022-08-11T21:17:27.061Z,20.30
2022-08-11T21:20:18.377Z,20.20
2022-08-11T21:23:10.485Z,20.20
2022-08-11T21:26:06.879Z,20.30
2022-08-11T21:28:57.693Z,20.30
2022-08-11T21:31:45.611Z,20.30
2022-08-11T21:34:35.135Z,20.30
2022-08-11T21:37:22.080Z,20.30
2022-08-11T21:40:10.720Z,20.30
2022-08-11T21:43:02.502Z,20.30
2022-08-11T21:45:52.967Z,20.30
2022-08-11T21:48:38.993Z,20.30
2022-08-11T21:51:24.883Z,20.30
2022-08-11T21:54:11.531Z,20.30
2022-08-11T21:56:58.531Z,20.30
2022-08-11T21:59:54.506Z,20.30
2022-08-11T22:02:42.475Z,20.30
2022-08-11T22:05:39.404Z,20.30
2022-08-11T22:08:28.383Z,20.30
2022-08-11T22:11:14.852Z,20.30
2022-08-11T22:14:07.828Z,20.30
2022-08-11T22:16:54.617Z,20.30
2022-08-11T22:19:42.941Z,20.30
2022-08-11T22:22:31.673Z,20.20
2022-08-11T22:25:18.435Z,20.20
2022-08-11T22:28:04.918Z,20.20
2022-08-11T22:30:50.905Z,20.20
2022-08-11T22:33:36.791Z,20.20
2022-08-11T22:36:31.211Z,20.20
2022-08-11T22:39:19.904Z,20.10
2022-08-11T22:42:05.722Z,20.10
2022-08-11T22:44:51.469Z,20.20
2022-08-11T22:47:41.081Z,20.20
2022-08-11T22:50:28.640Z,20.20
2022-08-11T22:53:17.493Z,20.20
2022-08-11T22:56:03.680Z,20.30
2022-08-11T22:58:50.015Z,20.20
2022-08-11T23:01:37.041Z,20.30
2022-08-11T23:04:24.311Z,20.20
2022-08-11T23:07:11.166Z,20.20
2022-08-11T23:09:58.929Z,20.20
2022-08-11T23:12:45.477Z,20.20
2022-08-11T23:15:33.307Z,20.20
2022-08-11T23:18:21.100Z,20.10
2022-08-11T23:21:07.443Z,20.20
2022-08-11T23:23:54.199Z,20.10
2022-08-11T23:26:43.252Z,20.10
2022-08-11T23:29:30.558Z,20.10
2022-08-11T23:32:16.601Z,20.10
2022-08-11T23:35:39.299Z,20.10
2022-08-11T23:38:14.571Z,20.00
2022-08-11T23:41:00.127Z,20.00
2022-08-11T23:43:47.493Z,20.00
2022-08-11T23:46:33.358Z,20.00
2022-08-11T23:49:22.001Z,20.00
2022-08-11T23:52:08.163Z,19.90
2022-08-11T23:54:55.104Z,19.80
2022-08-11T23:57:47.811Z,19.80
